createdAt,value
2023-03-18T00:01:47.284Z,1024.70175
2023-03-18T00:06:48.965Z,1006.06897
2023-03-18T00:11:50.704Z,1064
2023-03-18T00:16:52.358Z,1755.76471
2023-03-18T00:21:53.952Z,1410.66667
2023-03-18T00:26:55.565Z,1128.61538
2023-03-18T00:31:57.212Z,970.66667
2023-03-18T00:36:58.931Z,1128.61538
2023-03-18T00:42:00.561Z,0
2023-03-18T00:47:02.312Z,953.83607
2023-03-18T00:52:04.012Z,937.54839
2023-03-18T00:57:05.686Z,937.54839
2023-03-18T01:02:07.481Z,988.0678
2023-03-18T01:07:09.152Z,799.55556
2023-03-18T01:12:10.950Z,811.60563
2023-03-18T01:17:12.556Z,891.69231
2023-03-18T01:22:14.162Z,0
2023-03-18T01:27:15.816Z,0
2023-03-18T01:32:17.414Z,891.69231
2023-03-18T01:37:19.006Z,776.43243
2023-03-18T01:42:20.589Z,668.70588
2023-03-18T01:47:22.240Z,754.52632
2023-03-18T01:52:23.913Z,733.74359
2023-03-18T01:57:25.623Z,799.55556
2023-03-18T02:02:27.383Z,863.40299
2023-03-18T02:07:28.992Z,849.88235
2023-03-18T02:12:30.625Z,824
2023-03-18T02:17:32.255Z,937.54839
2023-03-18T02:22:33.906Z,970.66667
2023-03-18T02:27:35.534Z,849.88235
2023-03-18T02:32:37.266Z,776.43243
2023-03-18T02:37:38.947Z,754.52632
2023-03-18T02:42:40.608Z,811.60563
2023-03-18T02:47:42.343Z,811.60563
2023-03-18T02:52:43.990Z,799.55556
2023-03-18T02:57:45.622Z,811.60563
2023-03-18T03:02:47.295Z,799.55556
2023-03-18T03:07:49.184Z,849.88235
2023-03-18T03:12:50.786Z,891.69231
2023-03-18T03:17:52.548Z,877.33333
2023-03-18T03:22:54.416Z,811.60563
2023-03-18T03:27:56.051Z,744
2023-03-18T03:32:57.683Z,723.74684
2023-03-18T03:37:59.299Z,733.74359
2023-03-18T03:43:00.978Z,704.49383
2023-03-18T03:48:02.602Z,824
2023-03-18T03:53:04.179Z,776.43243
2023-03-18T03:58:05.918Z,787.83562
2023-03-18T04:03:07.572Z,799.55556
2023-03-18T04:08:09.169Z,836.75362
2023-03-18T04:13:10.902Z,824
2023-03-18T04:18:12.988Z,836.75362
2023-03-18T04:23:14.602Z,863.40299
2023-03-18T04:28:16.195Z,970.66667
2023-03-18T04:33:17.824Z,1006.06897
2023-03-18T04:38:19.480Z,953.83607
2023-03-18T04:43:21.136Z,970.66667
2023-03-18T04:48:22.779Z,1006.06897
2023-03-18T04:53:24.384Z,1006.06897
2023-03-18T04:58:26.005Z,953.83607
2023-03-18T05:03:27.652Z,906.5
2023-03-18T05:08:29.349Z,937.54839
2023-03-18T05:13:31.109Z,1006.06897
2023-03-18T05:18:32.775Z,970.66667
2023-03-18T05:23:34.513Z,988.0678
2023-03-18T05:28:36.118Z,1024.70175
2023-03-18T05:33:37.791Z,1006.06897
2023-03-18T05:38:39.400Z,970.66667
2023-03-18T05:43:41.009Z,937.54839
2023-03-18T05:48:42.622Z,953.83607
2023-03-18T05:53:44.332Z,953.83607
2023-03-18T05:58:46.004Z,988.0678
2023-03-18T06:03:47.709Z,1044
2023-03-18T06:08:49.387Z,1064
2023-03-18T06:13:51.038Z,1201.14286
2023-03-18T06:18:52.892Z,1283.13043
2023-03-18T06:23:54.570Z,1227.33333
2023-03-18T06:28:56.179Z,1254.6383
2023-03-18T06:34:00.187Z,1312.88889
2023-03-18T06:39:02.856Z,1254.6383
2023-03-18T06:44:04.625Z,1254.6383
2023-03-18T06:49:06.298Z,1283.13043
2023-03-18T06:54:08.135Z,1227.33333
2023-03-18T06:59:09.797Z,1084.74074
2023-03-18T07:04:11.443Z,1044
2023-03-18T07:09:13.166Z,1064
2023-03-18T07:14:14.774Z,1044
2023-03-18T07:19:16.687Z,1006.06897
2023-03-18T07:24:18.290Z,1128.61538
2023-03-18T07:29:19.912Z,1106.26415
2023-03-18T07:34:21.543Z,1128.61538
2023-03-18T07:39:23.186Z,1106.26415
2023-03-18T07:44:24.846Z,1176
2023-03-18T07:49:26.520Z,1254.6383
2023-03-18T07:54:28.288Z,1227.33333
2023-03-18T07:59:29.969Z,1227.33333
2023-03-18T08:04:31.671Z,1227.33333
2023-03-18T08:09:33.447Z,1201.14286
2023-03-18T08:14:35.115Z,1227.33333
2023-03-18T08:19:36.771Z,1201.14286
2023-03-18T08:24:38.455Z,1283.13043
2023-03-18T08:29:40.107Z,1344
2023-03-18T08:34:41.774Z,1376.55814
2023-03-18T08:39:43.376Z,1312.88889
2023-03-18T08:44:45.052Z,1312.88889
2023-03-18T08:49:46.959Z,1283.13043
2023-03-18T08:54:48.579Z,1283.13043
2023-03-18T08:59:50.217Z,1254.6383
2023-03-18T09:04:51.844Z,1283.13043
2023-03-18T09:09:53.467Z,1227.33333
2023-03-18T09:14:55.062Z,1254.6383
2023-03-18T09:19:56.729Z,1254.6383
2023-03-18T09:24:58.400Z,1227.33333
2023-03-18T09:30:00.193Z,1201.14286
2023-03-18T09:35:02.043Z,1254.6383
2023-03-18T09:40:03.864Z,1176
2023-03-18T09:45:05.494Z,1151.84314
2023-03-18T09:50:07.283Z,1128.61538
2023-03-18T09:55:09.038Z,1084.74074
2023-03-18T10:00:10.719Z,1106.26415
2023-03-18T10:05:12.393Z,1151.84314
2023-03-18T10:10:14.019Z,1106.26415
2023-03-18T10:15:15.637Z,1106.26415
2023-03-18T10:20:17.405Z,1128.61538
2023-03-18T10:25:21.201Z,1044
2023-03-18T10:30:22.994Z,1084.74074
2023-03-18T10:35:24.629Z,1064
2023-03-18T10:40:26.240Z,1106.26415
2023-03-18T10:45:27.866Z,1106.26415
2023-03-18T10:50:29.636Z,1106.26415
2023-03-18T10:55:31.320Z,1064
2023-03-18T11:00:33.396Z,1044
2023-03-18T11:05:35.264Z,1084.74074
2023-03-18T11:10:37.043Z,1151.84314
2023-03-18T11:15:38.860Z,1084.74074
2023-03-18T11:20:40.471Z,1176
2023-03-18T11:25:42.112Z,1151.84314
2023-03-18T11:30:44.047Z,1176
2023-03-18T11:35:45.966Z,1227.33333
2023-03-18T11:40:47.602Z,1227.33333
2023-03-18T11:45:49.188Z,1201.14286
2023-03-18T11:50:50.803Z,1176
2023-03-18T11:55:52.462Z,1176
2023-03-18T12:00:54.079Z,1176
2023-03-18T12:05:55.804Z,1151.84314
2023-03-18T12:10:57.438Z,1151.84314
2023-03-18T12:15:59.058Z,1106.26415
2023-03-18T12:21:00.685Z,1151.84314
2023-03-18T12:26:02.328Z,1106.26415
2023-03-18T12:31:03.965Z,1084.74074
2023-03-18T12:36:05.700Z,953.83607
2023-03-18T12:41:07.261Z,906.5
2023-03-18T12:46:08.927Z,1044
2023-03-18T12:51:10.590Z,1084.74074
2023-03-18T12:56:12.286Z,1064
2023-03-18T13:01:14.041Z,1064
2023-03-18T13:06:15.695Z,1064
2023-03-18T13:11:17.304Z,1024.70175
2023-03-18T13:16:19.041Z,1006.06897
2023-03-18T13:21:20.669Z,1044
2023-03-18T13:26:22.331Z,1006.06897
2023-03-18T13:31:24.019Z,1024.70175
2023-03-18T13:36:25.685Z,1064
2023-03-18T13:41:27.299Z,1064
2023-03-18T13:46:28.995Z,988.0678
2023-03-18T13:51:30.662Z,1006.06897
2023-03-18T13:56:32.285Z,988.0678
2023-03-18T14:01:34.034Z,937.54839
2023-03-18T14:06:35.829Z,891.69231
2023-03-18T14:11:37.532Z,891.69231
2023-03-18T14:16:39.297Z,836.75362
2023-03-18T14:21:40.944Z,733.74359
2023-03-18T14:26:42.580Z,765.33333
2023-03-18T14:31:44.271Z,733.74359
2023-03-18T14:36:45.956Z,733.74359
2023-03-18T14:41:47.607Z,744
2023-03-18T14:46:51.321Z,754.52632
2023-03-18T14:51:53.263Z,765.33333
2023-03-18T14:56:54.939Z,714
2023-03-18T15:01:56.753Z,744
2023-03-18T15:06:58.353Z,787.83562
2023-03-18T15:12:00.015Z,811.60563
2023-03-18T15:17:01.711Z,799.55556
2023-03-18T15:22:03.493Z,970.66667
2023-03-18T15:27:05.335Z,988.0678
2023-03-18T15:32:10.093Z,1044
2023-03-18T15:37:12.316Z,1064
2023-03-18T15:42:13.987Z,1064
2023-03-18T15:47:15.673Z,1044
2023-03-18T15:52:17.328Z,1044
2023-03-18T15:57:18.922Z,1106.26415
2023-03-18T16:02:20.561Z,1106.26415
2023-03-18T16:07:22.267Z,1064
2023-03-18T16:12:24.107Z,1106.26415
2023-03-18T16:17:25.718Z,1106.26415
2023-03-18T16:22:27.341Z,1201.14286
2023-03-18T16:27:29.000Z,1227.33333
2023-03-18T16:32:30.677Z,1254.6383
2023-03-18T16:37:32.329Z,1128.61538
2023-03-18T16:42:33.968Z,0
2023-03-18T16:47:35.619Z,0
2023-03-18T16:52:37.228Z,0
2023-03-18T16:57:38.873Z,0
2023-03-18T17:02:40.605Z,0
2023-03-18T17:07:42.360Z,0
2023-03-18T17:12:44.060Z,0
2023-03-18T17:17:45.841Z,0
2023-03-18T17:22:47.562Z,0
2023-03-18T17:27:49.161Z,0
2023-03-18T17:32:50.863Z,0
2023-03-18T17:37:52.574Z,0
2023-03-18T17:42:54.185Z,0
2023-03-18T17:47:55.776Z,1565.05263
2023-03-18T17:52:57.385Z,0
2023-03-18T17:57:59.020Z,1565.05263
2023-03-18T18:03:00.863Z,1484
2023-03-18T18:08:02.593Z,1484
2023-03-18T18:13:04.218Z,1565.05263
2023-03-18T18:18:05.819Z,1565.05263
2023-03-18T18:23:07.504Z,1655.11111
2023-03-18T18:28:09.187Z,1484
2023-03-18T18:33:10.825Z,1344
2023-03-18T18:38:12.457Z,1312.88889
2023-03-18T18:43:14.158Z,1283.13043
2023-03-18T18:48:15.797Z,1283.13043
2023-03-18T18:53:17.411Z,1312.88889
2023-03-18T18:58:19.024Z,0
2023-03-18T19:03:20.681Z,1227.33333
2023-03-18T19:08:22.358Z,1254.6383
2023-03-18T19:13:24.064Z,1376.55814
2023-03-18T19:18:25.689Z,1376.55814
2023-03-18T19:23:27.349Z,1344
2023-03-18T19:28:29.059Z,1344
2023-03-18T19:33:30.714Z,1254.6383
2023-03-18T19:38:32.362Z,1201.14286
2023-03-18T19:43:34.045Z,1201.14286
2023-03-18T19:48:35.691Z,1227.33333
2023-03-18T19:53:37.303Z,1254.6383
2023-03-18T19:58:39.106Z,1201.14286
2023-03-18T20:03:40.771Z,1283.13043
2023-03-18T20:08:42.369Z,1201.14286
2023-03-18T20:13:43.997Z,1344
2023-03-18T20:18:45.968Z,1254.6383
2023-03-18T20:23:47.690Z,1084.74074
2023-03-18T20:28:49.292Z,1106.26415
2023-03-18T20:33:50.914Z,1044
2023-03-18T20:38:52.549Z,1064
2023-03-18T20:43:54.176Z,1006.06897
2023-03-18T20:48:55.837Z,0
2023-03-18T20:53:57.474Z,1024.70175
2023-03-18T20:58:59.236Z,1106.26415
2023-03-18T21:04:00.929Z,1044
2023-03-18T21:09:02.829Z,1024.70175
2023-03-18T21:14:04.415Z,1064
2023-03-18T21:19:06.066Z,1084.74074
2023-03-18T21:24:07.816Z,1106.26415
2023-03-18T21:29:09.468Z,1106.26415
2023-03-18T21:34:11.138Z,1024.70175
2023-03-18T21:39:12.899Z,1044
2023-03-18T21:44:14.542Z,1044
2023-03-18T21:49:16.224Z,1128.61538
2023-03-18T21:54:17.969Z,1064
2023-03-18T21:59:19.630Z,1084.74074
2023-03-18T22:04:21.300Z,937.54839
2023-03-18T22:09:23.099Z,849.88235
2023-03-18T22:14:24.710Z,811.60563
2023-03-18T22:19:26.479Z,877.33333
2023-03-18T22:24:28.207Z,877.33333
2023-03-18T22:29:29.867Z,937.54839
2023-03-18T22:34:31.465Z,1128.61538
2023-03-18T22:39:33.069Z,1128.61538
2023-03-18T22:44:34.708Z,1128.61538
2023-03-18T22:49:36.372Z,1084.74074
2023-03-18T22:54:38.016Z,0
2023-03-18T22:59:39.619Z,0
2023-03-18T23:04:41.264Z,0
2023-03-18T23:09:56.260Z,0
2023-03-18T23:14:58.638Z,891.69231
2023-03-18T23:20:00.251Z,0
2023-03-18T23:25:01.890Z,849.88235
2023-03-18T23:30:03.492Z,0
2023-03-18T23:35:05.222Z,863.40299
2023-03-18T23:40:06.923Z,877.33333
2023-03-18T23:45:08.595Z,0
2023-03-18T23:50:10.274Z,0
2023-03-18T23:55:30.886Z,877.33333
